TAF Text Data
IDs:
Format:
Raw Decoded Include METAR

Data at: 0936 UTC 07 Dec 2022

METAR for:KTOB (Dodge Center Arpt, MN, US)
Text:KTOB 070915Z AUTO 34004KT 5SM BR SCT001 M09/M10 A3012 RMK AO2
Temperature: -9.0°C ( 16°F)
Dewpoint:-10.0°C ( 14°F) [RH = 92%]
Pressure (altimeter):30.12 inches Hg (1020.1 mb)
Winds:from the NNW (340 degrees) at 5 MPH (4 knots; 2.1 m/s)
Visibility: 5 sm ( 8 km)
Ceiling:at least 12,000 feet AGL
Clouds: scattered clouds at 100 feet AGL
Weather:BR (mist)
QC Flag:automated observation with no human augmentation

TAF for:KTOB (Dodge Center Arpt, MN, US)
Text:No data found